Castle Dale, Utah
Current Conditions -  °F | °C
As of 4:53 AM on Saturday 25 Oct 2014 (Local Time) from KPUC Reporting Station
Clear Clear  
Wind Chill: 47°   Ceiling: Unl
Heat Index: 47°   Visibility: 10mi
Dew Point: 32°   Wind: 0mph
Humidity: 56%   Direction: NA
Pressure: 30.25"   Gusts: NA
Location:  39.21°N, 111.02°W
Report Text: KPUC 251053Z AUTO 00000KT 10SM CLR 08/00 A3025 RMK AO2 SLP205 T00830000 TSNO
Loading
Personal Weather Stations






























Interactive Weather Map
Tropical Storm Tracking
New forecast layout! Learn more

10-Day Weather Forecast

Advertisements
Track Severe Weather on mobile